createdAt,value
2018-03-01T00:02:54.187Z,15.30
2018-03-01T00:07:56.770Z,14.80
2018-03-01T00:12:59.479Z,13.53
2018-03-01T00:18:02.032Z,14.33
2018-03-01T00:23:04.840Z,14.90
2018-03-01T00:28:07.515Z,14.30
2018-03-01T00:33:10.364Z,14.27
2018-03-01T00:38:12.972Z,15.10
2018-03-01T00:43:15.512Z,14.83
2018-03-01T00:48:18.256Z,15.50
2018-03-01T00:53:20.879Z,14.60
2018-03-01T00:58:23.469Z,14.57
2018-03-01T01:03:26.125Z,14.57
2018-03-01T01:08:28.762Z,15.30
2018-03-01T01:13:32.089Z,13.80
2018-03-01T01:18:35.449Z,14.03
2018-03-01T01:23:38.406Z,13.67
2018-03-01T01:28:41.195Z,13.77
2018-03-01T01:33:44.503Z,13.83
2018-03-01T01:38:47.027Z,14.23
2018-03-01T01:43:49.589Z,13.73
2018-03-01T01:48:53.400Z,15.37
2018-03-01T01:53:55.985Z,14.23
2018-03-01T01:58:58.660Z,14.20
2018-03-01T02:04:01.202Z,14.47
2018-03-01T02:09:03.877Z,12.83
2018-03-01T02:14:06.565Z,14.47
2018-03-01T02:19:09.107Z,13.27
2018-03-01T02:24:11.885Z,14.40
2018-03-01T02:29:16.201Z,13.03
2018-03-01T02:34:18.745Z,13.83
2018-03-01T02:39:21.401Z,13.30
2018-03-01T02:44:24.492Z,15.10
2018-03-01T02:49:27.057Z,12.83
2018-03-01T02:54:29.646Z,13.00
2018-03-01T02:59:32.235Z,13.20
2018-03-01T03:04:34.841Z,13.37
2018-03-01T03:09:37.425Z,12.33
2018-03-01T03:14:40.664Z,12.87
2018-03-01T03:19:44.967Z,12.57
2018-03-01T03:24:47.547Z,13.20
2018-03-01T03:29:50.898Z,13.70
2018-03-01T03:34:53.522Z,12.93
2018-03-01T03:39:56.051Z,13.50
2018-03-01T03:44:58.582Z,12.83
2018-03-01T03:50:01.155Z,12.20
2018-03-01T03:55:03.756Z,10.93
2018-03-01T04:00:06.382Z,12.60
2018-03-01T04:05:08.922Z,11.83
2018-03-01T04:10:11.577Z,12.07
2018-03-01T04:15:14.623Z,11.83
2018-03-01T04:20:17.176Z,12.20
2018-03-01T04:25:19.818Z,11.47
2018-03-01T04:30:22.368Z,11.93
2018-03-01T04:35:24.987Z,12.50
2018-03-01T04:40:28.461Z,12.00
2018-03-01T04:45:30.994Z,11.13
2018-03-01T04:50:33.524Z,11.20
2018-03-01T04:55:36.108Z,10.70
2018-03-01T05:00:38.653Z,11.33
2018-03-01T05:05:41.379Z,11.97
2018-03-01T05:10:43.966Z,11.67
2018-03-01T05:15:46.807Z,10.77
2018-03-01T05:20:49.395Z,11.20
2018-03-01T05:25:52.336Z,10.53
2018-03-01T05:30:55.202Z,11.40
2018-03-01T05:35:57.771Z,12.63
2018-03-01T05:41:01.383Z,11.30
2018-03-01T05:46:04.723Z,10.70
2018-03-01T05:51:07.301Z,10.57
2018-03-01T05:56:09.979Z,11.30
2018-03-01T06:01:12.562Z,11.23
2018-03-01T06:06:16.225Z,11.40
2018-03-01T06:11:19.110Z,11.67
2018-03-01T06:16:21.829Z,11.80
2018-03-01T06:21:24.420Z,12.20
2018-03-01T06:26:26.978Z,12.27
2018-03-01T06:31:30.181Z,13.57
2018-03-01T06:36:33.535Z,12.63
2018-03-01T06:41:36.752Z,12.93
2018-03-01T06:46:39.313Z,12.03
2018-03-01T06:51:42.243Z,13.70
2018-03-01T06:56:44.900Z,11.90
2018-03-01T07:01:47.471Z,12.53
2018-03-01T07:06:50.108Z,12.23
2018-03-01T07:11:53.226Z,11.77
2018-03-01T07:16:55.831Z,11.80
2018-03-01T07:21:58.734Z,13.87
2018-03-01T07:27:01.821Z,11.67
2018-03-01T07:32:05.231Z,12.80
2018-03-01T07:37:07.933Z,11.90
2018-03-01T07:42:10.859Z,12.47
2018-03-01T07:47:13.461Z,12.77
2018-03-01T07:52:16.045Z,12.70
2018-03-01T07:57:18.679Z,13.70
2018-03-01T08:02:21.261Z,11.97
2018-03-01T08:07:24.596Z,11.07
2018-03-01T08:12:28.099Z,11.67
2018-03-01T08:17:30.706Z,12.03
2018-03-01T08:22:33.280Z,11.77
2018-03-01T08:27:36.228Z,12.07
2018-03-01T08:32:39.361Z,12.10
2018-03-01T08:37:41.929Z,10.93
2018-03-01T08:42:45.381Z,11.57
2018-03-01T08:47:47.996Z,11.20
2018-03-01T08:52:51.125Z,12.37
2018-03-01T08:57:53.728Z,10.90
2018-03-01T09:02:56.611Z,11.97
2018-03-01T09:07:59.204Z,12.80
2018-03-01T09:13:01.941Z,11.93
2018-03-01T09:18:04.539Z,12.10
2018-03-01T09:23:08.339Z,11.60
2018-03-01T09:28:10.962Z,11.10
2018-03-01T09:33:13.894Z,11.93
2018-03-01T09:38:16.653Z,11.80
2018-03-01T09:43:19.655Z,12.10
2018-03-01T09:48:23.029Z,11.67
2018-03-01T09:53:25.670Z,12.77
2018-03-01T09:58:28.345Z,11.97
2018-03-01T10:03:31.490Z,12.00
2018-03-01T10:08:34.179Z,12.43
2018-03-01T10:13:37.171Z,11.60
2018-03-01T10:18:39.888Z,12.63
2018-03-01T10:23:42.461Z,13.10
2018-03-01T10:28:45.032Z,12.13
2018-03-01T10:33:47.554Z,12.50
2018-03-01T10:38:50.111Z,12.17
2018-03-01T10:43:53.405Z,12.40
2018-03-01T10:48:56.005Z,14.00
2018-03-01T10:53:58.608Z,13.60
2018-03-01T10:59:01.175Z,12.50
2018-03-01T11:04:03.841Z,13.20
2018-03-01T11:09:06.429Z,13.20
2018-03-01T11:14:09.793Z,13.53
2018-03-01T11:19:12.418Z,12.90
2018-03-01T11:24:15.175Z,13.20
2018-03-01T11:29:17.743Z,13.73
2018-03-01T11:34:20.618Z,13.47
2018-03-01T11:39:23.188Z,12.60
2018-03-01T11:44:25.865Z,12.77
2018-03-01T11:49:28.440Z,13.83
2018-03-01T11:54:31.079Z,11.90
2018-03-01T11:59:33.662Z,13.10
2018-03-01T12:04:36.531Z,11.50
2018-03-01T12:09:39.169Z,11.63
2018-03-01T12:14:41.724Z,12.50
2018-03-01T12:19:44.299Z,12.17
2018-03-01T12:24:46.883Z,12.40
2018-03-01T12:29:49.438Z,12.60
2018-03-01T12:34:52.020Z,12.20
2018-03-01T12:39:54.570Z,12.40
2018-03-01T12:44:57.476Z,11.43
2018-03-01T12:50:00.097Z,11.20
2018-03-01T12:55:03.011Z,11.40
2018-03-01T13:00:05.610Z,11.53
2018-03-01T13:05:08.690Z,11.60
2018-03-01T13:10:12.022Z,11.50
2018-03-01T13:15:14.608Z,12.07
2018-03-01T13:20:17.217Z,12.27
2018-03-01T13:25:20.175Z,10.23
2018-03-01T13:30:26.134Z,11.30
2018-03-01T13:35:46.571Z,10.83
2018-03-01T13:40:49.914Z,10.80
2018-03-01T13:46:04.270Z,13.30
2018-03-01T13:51:06.876Z,11.50
2018-03-01T13:56:09.434Z,10.40
2018-03-01T14:01:12.239Z,11.07
2018-03-01T14:06:15.025Z,10.10
2018-03-01T14:11:18.378Z,11.10
2018-03-01T14:16:20.967Z,11.63
2018-03-01T14:21:23.520Z,10.40
2018-03-01T14:26:27.979Z,9.53
2018-03-01T14:31:31.345Z,10.00
2018-03-01T14:36:34.470Z,9.90
2018-03-01T14:41:37.130Z,10.37
2018-03-01T14:46:40.134Z,10.20
2018-03-01T14:51:43.355Z,10.10
2018-03-01T14:56:46.040Z,10.53
2018-03-01T15:01:48.729Z,11.10
2018-03-01T15:06:51.341Z,10.57
2018-03-01T15:11:54.093Z,9.50
2018-03-01T15:16:57.478Z,9.20
2018-03-01T15:22:00.153Z,10.40
2018-03-01T15:27:02.758Z,10.87
2018-03-01T15:32:05.351Z,9.83
2018-03-01T15:37:08.036Z,10.43
2018-03-01T15:42:10.776Z,11.67
2018-03-01T15:47:13.433Z,10.27
2018-03-01T15:52:16.085Z,10.63
2018-03-01T15:57:19.664Z,10.40
2018-03-01T16:02:22.384Z,10.20
2018-03-01T16:07:25.079Z,9.97
2018-03-01T16:12:27.702Z,10.47
2018-03-01T16:17:30.342Z,11.20
2018-03-01T16:22:32.958Z,10.93
2018-03-01T16:27:35.518Z,11.00
2018-03-01T16:32:38.077Z,12.80
2018-03-01T16:37:40.723Z,13.10
2018-03-01T16:42:43.381Z,13.50
2018-03-01T16:47:46.696Z,12.17
2018-03-01T16:52:49.277Z,14.00
2018-03-01T16:57:52.199Z,13.40
2018-03-01T17:02:54.946Z,13.70
2018-03-01T17:07:57.790Z,11.90
2018-03-01T17:13:00.433Z,11.50
2018-03-01T17:18:03.024Z,12.07
2018-03-01T17:23:05.766Z,13.10
2018-03-01T17:28:08.375Z,11.90
2018-03-01T17:33:10.952Z,12.63
2018-03-01T17:38:13.581Z,11.80
2018-03-01T17:43:16.380Z,12.07
2018-03-01T17:48:19.074Z,12.87
2018-03-01T17:53:22.065Z,11.87
2018-03-01T17:58:25.006Z,12.40
2018-03-01T18:03:27.580Z,12.97
2018-03-01T18:08:30.177Z,10.97
2018-03-01T18:13:33.048Z,11.87
2018-03-01T18:18:35.887Z,12.43
2018-03-01T18:23:38.631Z,12.00
2018-03-01T18:28:41.309Z,11.90
2018-03-01T18:33:44.373Z,11.80
2018-03-01T18:38:48.236Z,12.10
2018-03-01T18:43:52.010Z,11.80
2018-03-01T18:48:54.676Z,12.57
2018-03-01T18:53:58.376Z,11.93
2018-03-01T18:59:01.541Z,12.90
2018-03-01T19:04:04.136Z,12.27
2018-03-01T19:09:06.766Z,11.20
2018-03-01T19:14:09.382Z,12.33
2018-03-01T19:19:12.166Z,12.33
2018-03-01T19:24:14.825Z,12.20
2018-03-01T19:29:17.504Z,12.27
2018-03-01T19:34:21.086Z,13.73
2018-03-01T19:39:23.665Z,12.50
2018-03-01T19:44:26.277Z,12.00
2018-03-01T19:49:29.443Z,12.23
2018-03-01T19:54:32.029Z,12.43
2018-03-01T19:59:34.602Z,12.40
2018-03-01T20:04:37.179Z,12.60
2018-03-01T20:09:39.758Z,14.03
2018-03-01T20:14:42.358Z,11.70
2018-03-01T20:19:44.972Z,12.90
2018-03-01T20:24:47.557Z,13.43
2018-03-01T20:29:50.124Z,12.87
2018-03-01T20:34:53.288Z,12.00
2018-03-01T20:39:55.861Z,13.40
2018-03-01T20:44:59.861Z,14.43
2018-03-01T20:50:02.430Z,14.17
2018-03-01T20:55:05.330Z,13.73
2018-03-01T21:00:08.628Z,14.70
2018-03-01T21:05:11.219Z,15.50
2018-03-01T21:10:13.979Z,14.60
2018-03-01T21:15:16.692Z,15.67
2018-03-01T21:20:19.272Z,15.07
2018-03-01T21:25:21.993Z,15.93
2018-03-01T21:30:25.366Z,15.73
2018-03-01T21:35:27.946Z,16.37
2018-03-01T21:40:31.874Z,18.40
2018-03-01T21:45:34.650Z,15.83
2018-03-01T21:50:37.599Z,16.37
2018-03-01T21:55:40.226Z,18.33
2018-03-01T22:00:42.878Z,18.20
2018-03-01T22:05:45.484Z,17.47
2018-03-01T22:10:48.410Z,16.80
2018-03-01T22:15:51.120Z,18.07
2018-03-01T22:20:55.201Z,16.60
2018-03-01T22:25:57.875Z,19.00
2018-03-01T22:31:01.250Z,17.80
2018-03-01T22:36:04.286Z,17.50
2018-03-01T22:41:07.089Z,16.87
2018-03-01T22:46:13.091Z,18.00
2018-03-01T22:51:15.788Z,18.80
2018-03-01T22:56:18.550Z,18.53
2018-03-01T23:01:21.153Z,18.50
2018-03-01T23:06:23.939Z,17.20
2018-03-01T23:11:26.727Z,18.93
2018-03-01T23:16:30.384Z,17.00
2018-03-01T23:21:33.467Z,17.20
2018-03-01T23:26:36.154Z,16.40
2018-03-01T23:31:39.262Z,15.80
2018-03-01T23:36:42.163Z,14.43
2018-03-01T23:41:45.609Z,14.63
2018-03-01T23:46:48.168Z,15.30
2018-03-01T23:51:51.623Z,14.20
2018-03-01T23:56:54.586Z,13.80
